Time;durP1;ratioP1;P1;durP2;ratioP2;P2;SDS_P1;SDS_P2;PMS_P1;PMS_P2;Temp;Humidity;BMP_temperature;BMP_pressure;BME280_temperature;BME280_humidity;BME280_pressure;Samples;Min_cycle;Max_cycle;Signal;HPM_P1;HPM_P2
2022/03/19 00:00:44;;;;;;;23.63;14.85;;;;;;;7.99;79.44;101476.13;5073030;28;21005;-76
2022/03/19 00:03:12;;;;;;;23.15;15.05;;;;;;;7.98;79.62;101474.31;5071931;28;20224;-77
2022/03/19 00:05:39;;;;;;;24.63;16.13;;;;;;;7.89;80.47;101482.53;5072606;28;20547;-77
2022/03/19 00:08:05;;;;;;;26.52;15.10;;;;;;;7.91;80.51;101495.03;5072545;28;20566;-77
2022/03/19 00:10:32;;;;;;;25.17;14.93;;;;;;;7.87;81.17;101487.06;5072078;28;20650;-77
2022/03/19 00:12:59;;;;;;;24.27;15.50;;;;;;;7.88;81.76;101481.66;5070967;28;20273;-77
2022/03/19 00:15:26;;;;;;;22.60;16.02;;;;;;;7.76;82.00;101478.31;5071656;28;20204;-77
2022/03/19 00:17:54;;;;;;;25.45;16.00;;;;;;;7.80;82.50;101488.97;5072122;28;20657;-76
2022/03/19 00:20:21;;;;;;;24.30;15.80;;;;;;;7.77;82.62;101480.06;5072428;28;20520;-76
2022/03/19 00:22:48;;;;;;;24.08;15.80;;;;;;;7.71;82.97;101486.41;5071593;28;20205;-76
2022/03/19 00:25:14;;;;;;;26.40;16.90;;;;;;;7.61;84.17;101488.34;5071640;28;20185;-76
2022/03/19 00:27:41;;;;;;;21.48;15.25;;;;;;;7.67;84.62;101479.34;5074686;28;20266;-76
2022/03/19 00:30:09;;;;;;;27.65;15.55;;;;;;;7.71;84.14;101483.72;5072568;28;20194;-76
2022/03/19 00:32:36;;;;;;;25.05;16.30;;;;;;;7.66;84.56;101483.81;5071793;28;20195;-76
2022/03/19 00:35:06;;;;;;;27.67;16.33;;;;;;;7.73;84.27;101482.81;5071667;28;20192;-77
2022/03/19 00:37:32;;;;;;;23.75;16.35;;;;;;;7.65;84.91;101475.81;5072287;28;20185;-76
2022/03/19 00:39:59;;;;;;;25.48;16.65;;;;;;;7.73;84.62;101484.59;5071503;28;20208;-76
2022/03/19 00:42:25;;;;;;;28.45;15.85;;;;;;;7.62;85.36;101491.91;5071410;28;20557;-76
2022/03/19 00:44:52;;;;;;;27.23;17.35;;;;;;;7.62;85.42;101470.47;5071667;28;20203;-76
2022/03/19 00:47:19;;;;;;;27.13;15.40;;;;;;;7.59;85.62;101481.25;5071511;28;20207;-76
2022/03/19 00:49:45;;;;;;;28.17;16.40;;;;;;;7.51;86.24;101476.91;5069914;28;20229;-76
2022/03/19 00:52:13;;;;;;;23.80;16.15;;;;;;;7.42;86.98;101481.53;5070255;28;20710;-76
2022/03/19 00:54:40;;;;;;;27.30;15.77;;;;;;;7.47;87.06;101476.97;5072039;28;20223;-76
2022/03/19 00:57:07;;;;;;;29.50;17.05;;;;;;;7.44;87.40;101483.28;5071981;28;20297;-76
2022/03/19 00:59:33;;;;;;;25.83;16.70;;;;;;;7.43;87.59;101483.28;5072119;28;20192;-76
2022/03/19 01:02:00;;;;;;;28.63;16.30;;;;;;;7.56;87.03;101474.16;5071477;28;20874;-76
2022/03/19 01:04:26;;;;;;;26.05;16.65;;;;;;;7.42;87.72;101477.06;5071767;28;20689;-76
2022/03/19 01:06:53;;;;;;;26.50;16.30;;;;;;;7.39;87.74;101469.03;5071723;28;20192;-76
2022/03/19 01:09:21;;;;;;;31.15;18.52;;;;;;;7.35;88.46;101477.16;5071452;28;20202;-76
2022/03/19 01:11:47;;;;;;;26.67;16.48;;;;;;;7.39;88.40;101474.41;5071871;28;20195;-76
2022/03/19 01:14:14;;;;;;;29.10;18.08;;;;;;;7.35;88.77;101483.41;5071948;28;20668;-76
2022/03/19 01:16:41;;;;;;;22.75;15.73;;;;;;;7.41;87.90;101464.53;5071687;28;20180;-77
2022/03/19 01:19:07;;;;;;;26.63;17.52;;;;;;;7.27;88.61;101471.91;5072061;28;20557;-76
2022/03/19 01:21:35;;;;;;;26.83;15.98;;;;;;;7.30;89.01;101466.50;5071191;28;20200;-76
2022/03/19 01:24:02;;;;;;;32.20;16.55;;;;;;;7.28;89.28;101482.63;5071025;28;20234;-77
2022/03/19 01:26:30;;;;;;;25.17;15.80;;;;;;;7.30;88.91;101469.19;5071572;28;20200;-77
2022/03/19 01:28:57;;;;;;;28.40;17.20;;;;;;;7.29;88.49;101457.56;5071970;28;20534;-78
2022/03/19 01:31:26;;;;;;;27.00;15.60;;;;;;;7.33;88.06;101453.06;5071564;28;20211;-77
2022/03/19 01:33:52;;;;;;;29.02;16.98;;;;;;;7.30;88.45;101472.75;5051333;28;20185;-77
2022/03/19 01:36:19;;;;;;;25.08;15.90;;;;;;;7.23;88.74;101473.72;5051719;28;20619;-76
2022/03/19 01:38:46;;;;;;;27.45;16.60;;;;;;;7.19;89.37;101477.41;5071161;28;20204;-76
2022/03/19 01:41:12;;;;;;;25.60;16.02;;;;;;;7.26;88.80;101471.03;5071524;28;20205;-77
2022/03/19 01:43:41;;;;;;;24.58;15.07;;;;;;;7.17;88.99;101465.81;5071481;28;20215;-76
2022/03/19 01:46:07;;;;;;;25.83;15.93;;;;;;;7.21;88.96;101463.94;5071959;28;20657;-76
2022/03/19 01:48:34;;;;;;;29.00;17.20;;;;;;;7.15;89.38;101464.06;5071597;28;20607;-76
2022/03/19 01:51:01;;;;;;;29.77;17.75;;;;;;;7.15;88.85;101454.22;5071806;28;20634;-76
2022/03/19 01:53:28;;;;;;;25.33;16.27;;;;;;;7.09;89.31;101454.31;5071592;28;20192;-75
2022/03/19 01:55:55;;;;;;;25.88;16.75;;;;;;;7.13;89.11;101455.16;5071295;28;20188;-76
2022/03/19 01:58:22;;;;;;;26.17;17.50;;;;;;;7.21;88.37;101454.16;5071690;28;20197;-76
2022/03/19 02:00:51;;;;;;;29.35;16.02;;;;;;;7.14;88.49;101464.94;5071835;28;20193;-77
2022/03/19 02:03:18;;;;;;;30.52;17.35;;;;;;;7.15;88.91;101462.25;5071161;28;20232;-76
2022/03/19 02:05:48;;;;;;;21.92;15.30;;;;;;;7.21;88.16;101459.50;5071360;28;20185;-76
2022/03/19 02:08:17;;;;;;;29.52;16.45;;;;;;;7.04;88.57;101450.81;5071085;28;20235;-76
2022/03/19 02:10:44;;;;;;;24.30;15.88;;;;;;;7.11;88.87;101465.88;5071639;28;20641;-76
2022/03/19 02:13:11;;;;;;;30.50;16.50;;;;;;;7.13;88.24;101450.69;5071423;28;20192;-76
2022/03/19 02:15:37;;;;;;;25.23;15.32;;;;;;;7.07;88.11;101451.63;5071572;28;20189;-76
2022/03/19 02:18:05;;;;;;;24.30;15.27;;;;;;;7.00;88.36;101451.75;5071457;28;20223;-76
2022/03/19 02:20:34;;;;;;;29.17;16.70;;;;;;;7.03;87.85;101454.38;5071025;28;20192;-76
2022/03/19 02:25:48;;;;;;;24.48;16.13;;;;;;;6.92;88.39;101457.22;5052587;28;20267;-76
2022/03/19 02:28:14;;;;;;;29.55;16.55;;;;;;;6.96;88.29;101453.56;5051460;28;20196;-76
2022/03/19 02:30:43;;;;;;;23.48;15.90;;;;;;;7.00;87.75;101451.75;5051351;28;20615;-76
2022/03/19 02:33:10;;;;;;;29.15;17.48;;;;;;;6.95;88.07;101442.91;5051485;28;20185;-76
2022/03/19 02:35:37;;;;;;;27.40;15.68;;;;;;;6.87;88.15;101457.28;5058657;28;20193;-76
2022/03/19 02:38:05;;;;;;;24.63;16.15;;;;;;;6.94;87.93;101450.03;5075157;28;20280;-76
2022/03/19 02:40:31;;;;;;;23.92;15.40;;;;;;;6.93;87.77;101440.25;5074862;28;20662;-76
2022/03/19 02:42:58;;;;;;;25.20;16.15;;;;;;;6.91;87.65;101449.22;5075103;28;20525;-76
2022/03/19 02:45:25;;;;;;;26.10;16.00;;;;;;;6.85;87.71;101436.78;5074651;28;20546;-76
2022/03/19 02:48:01;;;;;;;27.38;15.70;;;;;;;6.85;87.69;101444.81;5074536;28;20284;-76
2022/03/19 02:50:29;;;;;;;27.67;16.25;;;;;;;6.80;87.81;101442.19;5074113;28;20251;-76
2022/03/19 02:52:57;;;;;;;27.05;14.32;;;;;;;6.80;87.65;101436.81;5074334;28;20188;-76
2022/03/19 02:55:25;;;;;;;24.15;14.93;;;;;;;6.73;87.83;101442.31;5074626;28;20560;-76
2022/03/19 02:57:52;;;;;;;25.92;14.70;;;;;;;6.77;87.49;101441.34;5074276;28;20279;-76
2022/03/19 03:00:19;;;;;;;23.13;13.85;;;;;;;6.76;87.22;101447.59;5074219;28;20196;-76
2022/03/19 03:02:46;;;;;;;29.02;15.25;;;;;;;6.74;87.27;101439.63;5074191;28;20184;-76
2022/03/19 03:05:13;;;;;;;24.23;14.10;;;;;;;6.58;87.99;101433.56;5073652;28;20280;-76
2022/03/19 03:07:40;;;;;;;22.42;14.77;;;;;;;6.62;87.82;101426.38;5074305;28;20193;-76
2022/03/19 03:10:08;;;;;;;20.23;13.77;;;;;;;6.68;87.08;101432.53;5074318;28;20216;-76
2022/03/19 03:12:37;;;;;;;23.05;14.80;;;;;;;6.66;86.66;101418.28;5073709;28;20203;-76
2022/03/19 03:15:05;;;;;;;23.08;14.65;;;;;;;6.66;86.90;101436.13;5074092;28;20177;-77
2022/03/19 03:17:33;;;;;;;23.60;14.25;;;;;;;6.54;87.01;101425.59;5074096;28;20199;-77
2022/03/19 03:20:00;;;;;;;23.83;13.73;;;;;;;6.40;88.13;101415.94;5074308;28;20217;-76
2022/03/19 03:22:26;;;;;;;22.40;13.77;;;;;;;6.41;87.86;101435.56;5074291;28;20196;-76
2022/03/19 03:24:53;;;;;;;26.98;14.35;;;;;;;6.39;88.28;101429.31;5074025;28;20225;-76
2022/03/19 03:27:20;;;;;;;20.30;13.10;;;;;;;6.40;87.74;101412.34;5074033;28;20561;-77
2022/03/19 03:29:48;;;;;;;24.23;13.30;;;;;;;6.40;87.82;101426.66;5074074;28;20192;-77
2022/03/19 03:32:15;;;;;;;23.67;13.07;;;;;;;6.51;86.62;101425.63;5073254;28;20203;-77
2022/03/19 03:34:42;;;;;;;19.48;14.60;;;;;;;6.55;86.78;101432.72;5073558;28;20219;-76
2022/03/19 03:37:09;;;;;;;25.42;13.60;;;;;;;6.37;87.14;101426.66;5073994;28;20569;-77
2022/03/19 03:39:36;;;;;;;27.63;13.57;;;;;;;6.37;87.26;101415.97;5073589;28;20200;-76
2022/03/19 03:42:02;;;;;;;29.70;14.88;;;;;;;6.34;87.34;101418.69;5073505;28;20181;-76
2022/03/19 03:44:29;;;;;;;23.38;13.20;;;;;;;6.26;88.17;101425.91;5073761;28;20537;-77
2022/03/19 03:46:57;;;;;;;24.23;13.80;;;;;;;6.28;88.21;101421.41;5080700;28;20196;-77
2022/03/19 03:49:24;;;;;;;21.35;12.70;;;;;;;6.32;87.84;101420.47;5093300;28;20232;-77
2022/03/19 03:51:51;;;;;;;21.55;13.35;;;;;;;6.22;88.25;101421.50;5093885;28;20203;-77
2022/03/19 03:54:18;;;;;;;21.70;11.90;;;;;;;6.35;87.50;101417.75;5093847;28;20206;-77
2022/03/19 03:56:45;;;;;;;24.75;13.73;;;;;;;6.29;88.13;101415.19;5091964;28;20260;-77
2022/03/19 03:59:12;;;;;;;39.47;18.80;;;;;;;6.29;88.17;101412.50;5053001;28;20220;-77
2022/03/19 04:01:39;;;;;;;22.15;13.70;;;;;;;6.37;87.65;101423.97;5065850;28;20560;-77
2022/03/19 04:04:08;;;;;;;31.17;14.65;;;;;;;6.33;87.53;101421.38;5073150;28;20197;-77
2022/03/19 04:06:34;;;;;;;19.88;12.88;;;;;;;6.25;88.33;101408.09;5073034;28;20541;-77
2022/03/19 04:09:01;;;;;;;21.25;13.40;;;;;;;6.24;88.26;101406.28;5073368;28;20192;-77
2022/03/19 04:11:27;;;;;;;18.45;11.70;;;;;;;6.23;88.03;101408.09;5073299;28;20214;-76
2022/03/19 04:13:54;;;;;;;22.02;13.85;;;;;;;6.17;88.45;101405.50;5072879;28;20181;-76
2022/03/19 04:16:21;;;;;;;20.75;13.15;;;;;;;6.20;88.47;101413.50;5072647;28;20204;-76
2022/03/19 04:18:47;;;;;;;18.50;12.63;;;;;;;6.23;88.15;101412.56;5072784;28;20199;-76
2022/03/19 04:21:15;;;;;;;24.98;13.80;;;;;;;6.21;88.46;101411.69;5072591;28;20203;-76
2022/03/19 04:23:41;;;;;;;25.95;13.60;;;;;;;6.17;89.01;101421.56;5072510;28;20212;-75
2022/03/19 04:26:08;;;;;;;21.42;12.77;;;;;;;6.11;88.89;101410.91;5073094;28;20504;-76
2022/03/19 04:28:35;;;;;;;24.88;13.38;;;;;;;6.08;89.17;101415.41;5073157;28;20661;-76
2022/03/19 04:31:01;;;;;;;26.25;13.75;;;;;;;6.11;88.71;101413.59;5071974;28;20184;-76
2022/03/19 04:33:28;;;;;;;22.00;13.48;;;;;;;6.13;88.91;101406.44;5072534;28;20251;-76
2022/03/19 04:38:40;;;;;;;23.08;13.65;;;;;;;6.16;88.34;101418.91;5071594;28;20208;-76
2022/03/19 04:41:08;;;;;;;23.15;13.95;;;;;;;6.13;88.92;101416.22;5071338;28;20259;-76
2022/03/19 04:43:34;;;;;;;21.48;12.68;;;;;;;6.05;89.55;101414.53;5070998;28;20195;-76
2022/03/19 04:46:01;;;;;;;18.55;12.93;;;;;;;6.11;89.21;101418.06;5071516;28;20189;-77
2022/03/19 04:48:30;;;;;;;21.67;12.88;;;;;;;6.13;89.23;101422.50;5072195;28;20262;-77
2022/03/19 04:50:57;;;;;;;21.27;13.68;;;;;;;6.06;89.58;101415.44;5062021;28;20207;-76
2022/03/19 04:53:25;;;;;;;22.27;13.70;;;;;;;6.00;89.34;101413.69;5070124;28;20205;-76
2022/03/19 04:55:52;;;;;;;24.67;12.95;;;;;;;6.03;89.47;101415.44;5072028;28;20193;-76
2022/03/19 04:58:19;;;;;;;26.70;14.98;;;;;;;6.03;89.98;101410.97;5071871;28;20195;-76
2022/03/19 05:00:46;;;;;;;21.02;13.10;;;;;;;6.06;89.43;101407.41;5071403;28;20549;-76
2022/03/19 05:03:13;;;;;;;22.85;13.25;;;;;;;5.99;89.54;101398.56;5071600;28;20540;-76
2022/03/19 05:05:39;;;;;;;22.13;13.23;;;;;;;5.98;90.01;101410.16;5071626;28;20299;-75
2022/03/19 05:08:06;;;;;;;19.65;12.80;;;;;;;6.02;89.55;101401.19;5072470;28;20180;-78
2022/03/19 05:13:18;;;;;;;24.88;13.40;;;;;;;5.96;90.42;101408.41;5071835;28;20574;-76
2022/03/19 05:15:45;;;;;;;21.30;12.70;;;;;;;5.99;89.95;101403.91;5071561;28;20189;-76
2022/03/19 05:18:11;;;;;;;47.28;15.40;;;;;;;5.89;91.33;101401.31;5072228;28;20243;-77
2022/03/19 05:20:38;;;;;;;23.60;13.60;;;;;;;5.94;90.82;101400.38;5072199;28;20185;-77
2022/03/19 05:23:06;;;;;;;21.58;13.20;;;;;;;6.02;90.10;101403.00;5071781;28;20200;-77
2022/03/19 05:25:33;;;;;;;23.77;12.13;;;;;;;6.01;90.27;101403.88;5071457;28;20681;-77
2022/03/19 05:27:59;;;;;;;27.10;14.68;;;;;;;5.87;91.23;101397.75;5071868;28;20538;-77
2022/03/19 05:30:27;;;;;;;20.25;13.50;;;;;;;5.80;91.98;101405.84;5071223;28;20181;-77
2022/03/19 05:32:54;;;;;;;23.40;12.90;;;;;;;5.73;92.67;101405.94;5071070;28;20196;-76
2022/03/19 05:35:22;;;;;;;20.73;12.75;;;;;;;5.76;93.06;101405.88;5071471;28;20192;-77
2022/03/19 05:37:49;;;;;;;24.85;13.63;;;;;;;5.79;92.57;101400.53;5071544;28;20187;-77
2022/03/19 05:40:16;;;;;;;26.08;13.50;;;;;;;5.68;93.50;101407.75;5071940;28;20639;-76
2022/03/19 05:42:43;;;;;;;26.65;14.43;;;;;;;5.74;93.56;101400.53;5070985;28;20192;-76
2022/03/19 05:45:10;;;;;;;23.17;13.15;;;;;;;5.82;93.23;101411.19;5070669;28;20207;-76
2022/03/19 05:47:39;;;;;;;26.02;13.95;;;;;;;5.78;92.67;101406.75;5071430;28;20211;-77
2022/03/19 05:50:07;;;;;;;28.98;15.13;;;;;;;5.78;93.41;101404.09;5071492;28;20239;-76
2022/03/19 05:52:33;;;;;;;22.10;14.05;;;;;;;5.69;94.34;101409.53;5071246;28;20191;-76
2022/03/19 05:55:00;;;;;;;27.45;14.07;;;;;;;5.69;94.31;101398.81;5070803;28;20252;-76
2022/03/19 05:57:27;;;;;;;24.20;15.93;;;;;;;5.69;94.07;101404.19;5071280;28;20195;-76
2022/03/19 05:59:53;;;;;;;24.58;14.40;;;;;;;5.82;93.46;101404.03;5071274;28;20197;-76
2022/03/19 06:02:20;;;;;;;30.25;16.98;;;;;;;5.80;93.35;101411.19;5071467;28;20203;-76
2022/03/19 06:04:48;;;;;;;27.63;14.93;;;;;;;5.82;93.27;101408.50;5071767;28;20205;-75
2022/03/19 06:07:14;;;;;;;29.35;18.10;;;;;;;5.82;93.48;101408.50;5071560;28;20623;-75
2022/03/19 06:09:41;;;;;;;23.20;14.10;;;;;;;5.84;93.44;101404.91;5072284;28;20192;-76
2022/03/19 06:12:08;;;;;;;28.23;14.70;;;;;;;5.80;94.11;101404.97;5075426;28;20204;-76
2022/03/19 06:14:35;;;;;;;22.70;14.68;;;;;;;5.89;93.14;101409.34;5075016;28;20539;-76
2022/03/19 06:17:01;;;;;;;26.23;15.23;;;;;;;5.92;93.36;101414.63;5075448;28;20671;-76
2022/03/19 06:19:28;;;;;;;24.05;14.18;;;;;;;5.81;94.38;101404.03;5073859;28;20562;-77
2022/03/19 06:21:56;;;;;;;24.70;14.38;;;;;;;5.96;93.04;101400.38;5075530;28;20181;-77
2022/03/19 06:24:23;;;;;;;29.45;16.15;;;;;;;5.93;93.55;101398.59;5075245;28;20227;-77
2022/03/19 06:26:50;;;;;;;28.05;15.73;;;;;;;5.94;93.47;101410.16;5075177;28;20614;-77
2022/03/19 06:29:16;;;;;;;24.17;14.75;;;;;;;6.00;93.23;101402.13;5074864;28;20196;-77
2022/03/19 06:31:43;;;;;;;27.17;14.55;;;;;;;6.04;92.91;101401.19;5074715;28;20200;-77
2022/03/19 06:34:10;;;;;;;24.95;14.38;;;;;;;5.98;93.14;101402.13;5075020;28;20654;-76
2022/03/19 06:39:22;;;;;;;26.88;16.30;;;;;;;6.09;92.94;101410.06;5075297;28;20199;-76
2022/03/19 06:41:48;;;;;;;27.17;16.48;;;;;;;6.21;92.18;101409.91;5075152;28;20267;-76
2022/03/19 06:44:15;;;;;;;21.75;14.13;;;;;;;6.27;91.69;101403.59;5075085;28;20231;-77
2022/03/19 06:46:42;;;;;;;30.55;16.27;;;;;;;6.22;92.32;101405.47;5074433;28;20193;-77
2022/03/19 06:49:08;;;;;;;24.52;15.23;;;;;;;6.17;91.72;101400.16;5074197;28;20347;-74
2022/03/19 06:51:51;;;;;;;25.30;16.00;;;;;;;6.21;92.13;101398.31;5075867;28;20207;-76
2022/03/19 06:54:18;;;;;;;28.80;16.15;;;;;;;6.23;92.29;101401.88;5074597;28;20627;-76
2022/03/19 06:56:46;;;;;;;27.02;16.63;;;;;;;6.33;92.00;101395.53;5075799;28;20596;-76
2022/03/19 06:59:12;;;;;;;29.33;15.85;;;;;;;6.37;91.25;101391.00;5074980;28;20183;-74
2022/03/19 07:01:39;;;;;;;25.75;15.80;;;;;;;6.44;90.74;101388.25;5073988;28;20208;-75
2022/03/19 07:04:06;;;;;;;27.67;16.60;;;;;;;6.43;90.46;101390.94;5076005;28;20531;-76
2022/03/19 07:06:33;;;;;;;26.83;16.80;;;;;;;6.47;90.70;101382.84;5094475;28;20188;-76
2022/03/19 07:08:59;;;;;;;26.13;17.23;;;;;;;6.57;90.13;101385.41;5094399;28;20200;-75
2022/03/19 07:11:26;;;;;;;24.00;15.48;;;;;;;6.64;89.60;101390.63;5094154;28;20184;-75
2022/03/19 07:13:54;;;;;;;27.15;16.95;;;;;;;6.71;88.97;101402.16;5094236;28;20203;-76
2022/03/19 07:16:20;;;;;;;28.08;16.48;;;;;;;6.61;88.91;101389.81;5074390;28;20197;-76
2022/03/19 07:18:47;;;;;;;31.95;16.80;;;;;;;6.73;88.50;101386.06;5073263;28;20203;-76
2022/03/19 07:21:15;;;;;;;27.17;15.57;;;;;;;6.78;88.04;101378.84;5073960;28;20189;-76
2022/03/19 07:23:42;;;;;;;29.35;15.60;;;;;;;6.89;87.17;101383.16;5073364;28;20189;-76
2022/03/19 07:26:08;;;;;;;25.83;15.50;;;;;;;6.94;86.44;101387.56;5073294;28;20232;-75
2022/03/19 07:28:35;;;;;;;26.73;15.43;;;;;;;7.04;86.14;101387.41;5073839;28;20181;-76
2022/03/19 07:31:03;;;;;;;26.73;15.70;;;;;;;7.12;85.09;101383.72;5073228;28;20221;-76
2022/03/19 07:33:33;;;;;;;28.15;16.13;;;;;;;7.08;85.13;101366.81;5073913;28;20228;-77
2022/03/19 07:36:00;;;;;;;26.50;13.70;;;;;;;7.07;84.58;101381.09;5073130;28;20177;-77
2022/03/19 07:38:27;;;;;;;29.42;17.08;;;;;;;7.15;84.03;101381.88;5073183;28;20200;-76
2022/03/19 07:43:38;;;;;;;30.00;14.27;;;;;;;7.22;83.11;101377.31;5073223;28;20223;-77
2022/03/19 07:46:06;;;;;;;28.25;15.18;;;;;;;7.38;82.89;101378.84;5073609;28;20293;-76
2022/03/19 07:48:32;;;;;;;25.95;15.15;;;;;;;7.44;81.32;101381.41;5073280;28;20196;-76
2022/03/19 07:50:59;;;;;;;32.33;15.60;;;;;;;7.52;80.41;101383.97;5073337;28;20184;-76
2022/03/19 07:53:25;;;;;;;28.70;17.02;;;;;;;7.56;80.20;101380.31;5072983;28;20276;-76
2022/03/19 07:55:53;;;;;;;24.35;13.80;;;;;;;7.60;79.36;101382.03;5073396;28;20203;-76
2022/03/19 07:58:20;;;;;;;26.27;13.90;;;;;;;7.61;78.92;101378.44;5072167;28;20241;-77
2022/03/19 08:00:46;;;;;;;18.13;12.43;;;;;;;7.79;77.88;101379.03;5072679;28;20184;-76
2022/03/19 08:03:14;;;;;;;27.98;14.88;;;;;;;7.78;77.45;101388.88;5073083;28;20653;-76
2022/03/19 08:05:41;;;;;;;22.23;13.38;;;;;;;7.78;77.82;101374.56;5072840;28;20541;-76
2022/03/19 08:08:08;;;;;;;21.92;13.40;;;;;;;7.91;76.88;101376.09;5072900;28;20193;-77
2022/03/19 08:10:36;;;;;;;23.55;14.10;;;;;;;7.99;76.61;101373.28;5072309;28;20254;-77
2022/03/19 08:13:05;;;;;;;23.92;13.77;;;;;;;7.99;75.43;101365.25;5072825;28;20204;-77
2022/03/19 08:15:32;;;;;;;22.63;14.80;;;;;;;7.95;75.72;101375.13;5070387;28;20203;-77
2022/03/19 08:17:59;;;;;;;23.27;14.02;;;;;;;8.05;74.85;101365.09;5072245;28;20212;-76
2022/03/19 08:20:28;;;;;;;25.33;16.75;;;;;;;8.12;74.35;101358.72;5072047;28;20191;-77
2022/03/19 08:22:54;;;;;;;22.02;13.32;;;;;;;8.15;74.12;101364.91;5072126;28;20200;-79
2022/03/19 08:25:21;;;;;;;20.23;12.52;;;;;;;8.29;73.46;101371.78;5072353;28;20333;-77
2022/03/19 08:27:50;;;;;;;21.92;14.27;;;;;;;8.35;72.33;101363.63;5072066;28;20589;-78
2022/03/19 08:30:17;;;;;;;23.88;14.98;;;;;;;8.61;72.09;101363.06;5071922;28;20221;-78
2022/03/19 08:32:45;;;;;;;23.88;14.18;;;;;;;8.75;71.31;101366.38;5078443;28;20208;-85
2022/03/19 08:35:11;;;;;;;22.65;13.77;;;;;;;8.79;69.61;101360.91;5072230;28;20184;-85
2022/03/19 08:37:39;;;;;;;25.55;15.65;;;;;;;8.84;69.50;101349.16;5072567;28;20201;-84
2022/03/19 08:40:21;;;;;;;25.23;15.18;;;;;;;8.96;68.53;101348.84;5072318;28;20202;-84
2022/03/19 08:42:51;;;;;;;26.35;15.70;;;;;;;8.93;69.44;101354.31;5071823;28;20190;-85
2022/03/19 08:45:18;;;;;;;24.25;15.38;;;;;;;9.02;68.21;101349.63;5072470;28;20221;-86
2022/03/19 08:47:45;;;;;;;27.42;15.50;;;;;;;9.25;67.49;101357.13;5072757;28;20536;-85
2022/03/19 08:50:12;;;;;;;23.73;15.82;;;;;;;9.03;67.13;101343.34;5072277;28;20302;-85
2022/03/19 08:52:40;;;;;;;22.45;15.52;;;;;;;9.17;67.06;101350.13;5072689;28;20208;-85
2022/03/19 08:55:07;;;;;;;22.35;15.20;;;;;;;9.36;66.33;101361.34;5071256;28;20199;-85
2022/03/19 08:57:34;;;;;;;31.13;18.08;;;;;;;9.23;65.87;101341.06;5072004;28;20206;-85
2022/03/19 09:00:01;;;;;;;27.50;16.60;;;;;;;9.45;65.00;101352.16;5072718;28;20282;-86
2022/03/19 09:02:27;;;;;;;26.50;17.23;;;;;;;9.51;64.79;101340.34;5072029;28;20243;-85
2022/03/19 09:04:54;;;;;;;25.40;17.73;;;;;;;9.58;63.87;101353.59;5072529;28;20220;-85
2022/03/19 09:07:21;;;;;;;26.90;17.30;;;;;;;9.64;62.76;101339.09;5072589;28;20541;-85
2022/03/19 09:09:52;;;;;;;25.42;17.20;;;;;;;9.64;62.66;101340.91;5072124;28;20183;-85
2022/03/19 09:12:22;;;;;;;24.67;17.30;;;;;;;9.77;62.07;101343.25;5072586;28;20213;-85
2022/03/19 09:15:16;;;;;;;30.02;18.08;;;;;;;9.90;61.33;101329.44;5075467;28;20219;-85
2022/03/19 09:17:43;;;;;;;28.00;18.73;;;;;;;10.07;61.01;101331.66;5070460;28;20287;-75
2022/03/19 09:20:11;;;;;;;30.45;18.40;;;;;;;10.10;60.21;101337.81;5072190;28;20290;-74
2022/03/19 09:22:38;;;;;;;30.00;19.73;;;;;;;10.37;59.78;101333.47;5072360;28;20267;-74
2022/03/19 09:25:07;;;;;;;26.85;18.13;;;;;;;10.25;58.92;101320.38;5072005;28;20232;-73
2022/03/19 09:27:39;;;;;;;28.23;18.88;;;;;;;10.36;58.84;101330.84;5071994;28;20188;-74
2022/03/19 09:30:07;;;;;;;33.00;19.08;;;;;;;10.30;58.74;101334.59;5072058;28;20589;-74
2022/03/19 09:32:35;;;;;;;26.65;18.25;;;;;;;10.39;58.07;101336.13;5071615;28;20189;-73
2022/03/19 09:35:01;;;;;;;32.15;19.20;;;;;;;10.05;59.36;101325.44;5071607;28;20294;-74
2022/03/19 09:37:31;;;;;;;29.73;19.20;;;;;;;10.34;59.09;101321.94;5072217;28;20514;-73
2022/03/19 09:39:59;;;;;;;28.23;18.08;;;;;;;10.31;58.86;101317.53;5073185;28;20204;-78
2022/03/19 09:42:28;;;;;;;26.30;18.55;;;;;;;10.49;58.43;101312.50;5071160;28;20191;-78
2022/03/19 09:44:55;;;;;;;26.70;18.30;;;;;;;10.65;57.64;101300.34;5072778;28;20567;-78
2022/03/19 09:47:22;;;;;;;27.95;18.40;;;;;;;10.81;57.35;101284.56;5058131;28;20193;-78
2022/03/19 09:49:49;;;;;;;24.98;17.52;;;;;;;10.93;57.06;101286.84;5074750;28;20236;-78
2022/03/19 09:52:19;;;;;;;25.55;17.23;;;;;;;10.71;57.49;101293.88;5073735;28;20590;-78
2022/03/19 09:54:46;;;;;;;25.88;17.55;;;;;;;10.88;57.10;101282.53;5067209;28;20200;-77
2022/03/19 09:57:13;;;;;;;31.05;17.52;;;;;;;11.26;55.95;101268.69;5074771;28;20183;-77
2022/03/19 09:59:41;;;;;;;43.55;32.55;;;;;;;11.45;75.78;101273.44;5075108;28;20189;-80
2022/03/19 10:02:10;;;;;;;33.17;21.92;;;;;;;11.92;87.85;101264.56;5075033;28;20197;-81
2022/03/19 10:04:39;;;;;;;41.75;25.80;;;;;;;12.44;73.65;101268.00;5074957;28;20188;-79
2022/03/19 10:09:50;;;;;;;28.45;18.17;;;;;;;13.89;54.81;101252.84;5083515;28;20196;-78
2022/03/19 10:12:18;;;;;;;32.60;21.42;;;;;;;14.09;71.81;101245.63;5087558;28;20648;-79
2022/03/19 10:14:53;;;;;;;28.70;18.10;;;;;;;13.05;58.05;101248.41;5076156;28;20621;-78
2022/03/19 10:17:31;;;;;;;29.42;17.95;;;;;;;13.82;59.21;101247.78;5075546;28;20276;-79
2022/03/19 10:20:04;;;;;;;24.98;17.17;;;;;;;13.51;53.76;101247.31;5075821;28;20186;-79
2022/03/19 10:22:32;;;;;;;29.45;17.95;;;;;;;13.15;62.19;101250.63;5075614;28;20202;-79
2022/03/19 10:25:02;;;;;;;24.77;17.20;;;;;;;13.85;57.87;101234.09;5073997;28;20190;-80
2022/03/19 10:27:34;;;;;;;28.23;18.10;;;;;;;14.30;59.59;101236.47;5074575;28;20191;-81
2022/03/19 10:30:11;;;;;;;28.10;17.98;;;;;;;14.61;57.44;101229.63;5075152;28;20241;-80
2022/03/19 10:32:40;;;;;;;26.15;17.95;;;;;;;14.53;47.21;101231.78;5074687;28;20183;-79
2022/03/19 10:35:24;;;;;;;24.00;17.30;;;;;;;14.18;48.81;101220.81;5075059;28;20187;-80
2022/03/19 10:37:51;;;;;;;27.98;18.63;;;;;;;14.73;59.22;101225.41;5074764;28;20191;-80
2022/03/19 10:40:17;;;;;;;25.73;17.08;;;;;;;14.88;59.40;101223.75;5074562;28;20265;-80
2022/03/19 10:42:44;;;;;;;26.23;18.55;;;;;;;14.30;51.35;101222.94;5074646;28;20197;-80
2022/03/19 10:45:20;;;;;;;26.30;17.85;;;;;;;14.22;61.62;101226.94;5074216;28;20211;-80
2022/03/19 10:47:48;;;;;;;24.08;17.40;;;;;;;14.13;54.45;101225.53;5073701;28;20621;-80
2022/03/19 10:50:19;;;;;;;25.23;16.38;;;;;;;13.95;46.76;101214.66;5058115;28;20251;-80
2022/03/19 10:52:47;;;;;;;26.23;17.20;;;;;;;13.19;47.74;101209.94;5054323;28;20214;-79
2022/03/19 10:55:14;;;;;;;23.80;16.55;;;;;;;12.62;49.98;101204.22;5066950;28;20186;-80
2022/03/19 10:57:41;;;;;;;21.92;15.82;;;;;;;12.77;48.63;101200.00;5073834;28;20691;-78
2022/03/19 11:00:09;;;;;;;24.90;15.35;;;;;;;12.53;48.79;101189.28;5074021;28;20192;-77
2022/03/19 11:02:43;;;;;;;20.77;15.40;;;;;;;12.58;49.56;101189.94;5074060;28;20177;-77
2022/03/19 11:05:11;;;;;;;23.63;15.48;;;;;;;12.53;49.29;101189.28;5072780;28;20184;-78
2022/03/19 11:07:42;;;;;;;23.48;16.20;;;;;;;12.29;49.37;101183.03;5073497;28;20354;-78
2022/03/19 11:10:10;;;;;;;21.20;14.40;;;;;;;12.52;49.19;101179.38;5073644;28;20196;-78
2022/03/19 11:12:40;;;;;;;18.95;13.27;;;;;;;12.49;48.45;101179.53;5073325;28;20200;-78
2022/03/19 11:15:10;;;;;;;18.83;12.75;;;;;;;12.36;48.16;101178.25;5074365;28;20210;-78
2022/03/19 11:17:40;;;;;;;21.00;12.40;;;;;;;12.35;48.16;101161.19;5073776;28;20189;-77
2022/03/19 11:20:09;;;;;;;18.90;13.65;;;;;;;12.59;47.89;101183.59;5073398;28;20610;-78
2022/03/19 11:22:40;;;;;;;17.60;12.65;;;;;;;12.66;47.29;101166.19;5080650;28;20189;-76
2022/03/19 11:25:12;;;;;;;22.55;13.40;;;;;;;12.76;47.13;101165.81;5064798;28;20196;-76
2022/03/19 11:27:42;;;;;;;17.23;12.32;;;;;;;12.94;47.45;101154.22;5072944;28;20204;-76
2022/03/19 11:30:17;;;;;;;18.35;13.13;;;;;;;12.84;46.07;101158.22;5076381;28;20189;-88
2022/03/19 11:33:08;;;;;;;17.42;10.70;;;;;;;12.81;46.24;101148.44;5076477;28;20184;-87